Time;durP1;ratioP1;P1;durP2;ratioP2;P2;SDS_P1;SDS_P2;PMS_P1;PMS_P2;Temp;Humidity;BMP_temperature;BMP_pressure;BME280_temperature;BME280_humidity;BME280_pressure;Samples;Min_cycle;Max_cycle;Signal;HPM_P1;HPM_P2
2023/03/07 00:00:00;;;;;;;14.15;10.25;;;;;;;2.60;100.00;99759.88;10439656;28;20116;-73
2023/03/07 00:05:01;;;;;;;12.45;8.82;;;;;;;2.53;100.00;99774.09;10441178;28;20053;-73
2023/03/07 00:10:01;;;;;;;11.35;6.78;;;;;;;2.59;100.00;99773.59;10441437;28;20033;-73
2023/03/07 00:15:03;;;;;;;11.27;7.25;;;;;;;2.66;100.00;99767.09;10422991;28;20480;-72
2023/03/07 00:20:07;;;;;;;14.02;9.35;;;;;;;2.61;100.00;99762.53;10425092;28;20041;-73
2023/03/07 00:25:08;;;;;;;15.57;11.20;;;;;;;2.61;100.00;99765.13;10449902;28;20463;-73
2023/03/07 00:30:11;;;;;;;12.77;8.63;;;;;;;2.68;100.00;99762.94;10448262;28;20506;-72
2023/03/07 00:35:11;;;;;;;13.30;8.27;;;;;;;2.68;100.00;99768.09;10450217;28;20037;-73
2023/03/07 00:40:12;;;;;;;9.15;6.10;;;;;;;2.69;100.00;99768.19;10430819;28;20564;-73
2023/03/07 00:45:12;;;;;;;10.10;5.78;;;;;;;2.66;100.00;99777.44;10426556;28;20036;-73
2023/03/07 00:50:13;;;;;;;9.43;6.25;;;;;;;2.58;100.00;99764.94;10453717;28;20044;-72
2023/03/07 00:55:13;;;;;;;7.47;5.55;;;;;;;2.54;100.00;99767.25;10456652;28;20052;-72
2023/03/07 01:00:14;;;;;;;8.35;6.10;;;;;;;2.47;100.00;99773.72;10491320;28;20175;-73
2023/03/07 01:05:14;;;;;;;10.93;6.65;;;;;;;2.45;100.00;99770.16;10444284;28;20124;-73
2023/03/07 01:10:15;;;;;;;11.05;6.28;;;;;;;2.42;100.00;99757.03;10447286;28;20116;-73
2023/03/07 01:15:15;;;;;;;10.50;5.93;;;;;;;2.45;100.00;99759.81;10448337;28;20091;-73
2023/03/07 01:20:16;;;;;;;10.68;5.65;;;;;;;2.46;100.00;99754.75;10446395;28;20033;-73
2023/03/07 01:25:16;;;;;;;9.85;5.50;;;;;;;2.47;100.00;99747.88;10425133;28;20033;-73
2023/03/07 01:30:17;;;;;;;13.35;6.70;;;;;;;2.42;100.00;99745.03;10404748;28;20042;-73
2023/03/07 01:35:18;;;;;;;12.05;6.82;;;;;;;2.44;100.00;99742.53;10430432;28;20389;-73
2023/03/07 01:40:19;;;;;;;11.55;7.95;;;;;;;2.40;100.00;99733.72;10446435;28;20061;-73
2023/03/07 01:45:34;;;;;;;14.73;9.70;;;;;;;2.40;100.00;99730.22;10439809;28;20045;-73
2023/03/07 01:50:35;;;;;;;8.95;6.72;;;;;;;2.41;100.00;99724.25;10442817;28;20052;-73
2023/03/07 01:55:35;;;;;;;10.20;7.03;;;;;;;2.39;100.00;99708.69;10442786;28;20119;-73
2023/03/07 02:00:37;;;;;;;20.20;9.85;;;;;;;2.40;100.00;99705.31;10443870;28;20090;-74
2023/03/07 02:05:58;;;;;;;11.57;9.27;;;;;;;2.44;100.00;99696.03;10445586;28;20029;-73
2023/03/07 02:10:59;;;;;;;12.68;8.38;;;;;;;2.44;100.00;99690.88;10428997;28;20136;-73
2023/03/07 02:15:59;;;;;;;12.68;9.02;;;;;;;2.42;100.00;99690.81;10444684;28;20378;-74
2023/03/07 02:21:11;;;;;;;12.00;8.90;;;;;;;2.31;100.00;99697.88;10444245;28;20125;-74
2023/03/07 02:26:29;;;;;;;10.52;6.90;;;;;;;2.15;100.00;99687.38;10443961;28;20475;-73
2023/03/07 02:31:30;;;;;;;12.90;7.88;;;;;;;2.08;100.00;99680.06;10445996;28;20128;-73
2023/03/07 02:36:34;;;;;;;12.43;6.30;;;;;;;2.03;100.00;99670.34;10432644;28;20026;-73
2023/03/07 02:41:34;;;;;;;16.95;9.30;;;;;;;1.96;100.00;99655.25;10424191;28;20082;-73
2023/03/07 02:46:34;;;;;;;11.30;6.90;;;;;;;1.96;100.00;99654.38;10424460;28;20470;-73
2023/03/07 02:51:35;;;;;;;12.90;7.13;;;;;;;1.93;100.00;99639.59;10444070;28;20045;-73
2023/03/07 02:56:35;;;;;;;11.68;7.30;;;;;;;2.00;100.00;99638.31;10441409;28;20120;-73
2023/03/07 03:01:36;;;;;;;14.38;9.98;;;;;;;2.01;100.00;99629.75;10442514;28;20442;-73
2023/03/07 03:06:36;;;;;;;15.82;11.15;;;;;;;2.11;100.00;99623.47;10444398;28;20045;-74
2023/03/07 03:11:37;;;;;;;18.15;12.88;;;;;;;2.17;100.00;99618.69;10442160;28;20056;-74
2023/03/07 03:16:38;;;;;;;17.83;12.13;;;;;;;2.29;100.00;99608.22;10442713;28;20545;-75
2023/03/07 03:21:39;;;;;;;21.77;14.25;;;;;;;2.33;100.00;99605.91;10441734;28;20516;-73
2023/03/07 03:26:39;;;;;;;26.15;16.85;;;;;;;2.38;100.00;99610.44;10440101;28;20164;-73
2023/03/07 03:31:40;;;;;;;27.88;17.35;;;;;;;2.37;100.00;99604.41;10402609;28;20060;-73
2023/03/07 03:36:40;;;;;;;27.17;17.42;;;;;;;2.41;100.00;99602.88;10429636;28;20204;-73
2023/03/07 03:41:41;;;;;;;28.73;18.55;;;;;;;2.40;100.00;99598.50;10443111;28;20384;-73
2023/03/07 03:46:41;;;;;;;29.17;18.05;;;;;;;2.37;100.00;99586.31;10427753;28;20041;-73
2023/03/07 03:51:42;;;;;;;25.25;16.27;;;;;;;2.36;100.00;99589.72;10400567;28;20065;-73
2023/03/07 03:56:42;;;;;;;30.08;20.27;;;;;;;2.38;100.00;99594.94;10461273;28;20051;-73
2023/03/07 04:01:43;;;;;;;27.15;17.25;;;;;;;2.34;100.00;99586.16;10438567;28;20126;-75
2023/03/07 04:06:43;;;;;;;27.50;16.52;;;;;;;2.33;100.00;99576.63;10441394;28;20135;-73
2023/03/07 04:11:44;;;;;;;31.30;21.92;;;;;;;2.30;100.00;99568.69;10442874;28;20060;-73
2023/03/07 04:16:46;;;;;;;26.33;17.27;;;;;;;2.30;100.00;99574.72;10442930;28;20036;-72
2023/03/07 04:21:46;;;;;;;30.45;19.67;;;;;;;2.26;100.00;99559.84;10441620;28;20381;-73
2023/03/07 04:26:47;;;;;;;25.92;17.88;;;;;;;2.27;100.00;99550.44;10440976;28;20136;-73
2023/03/07 04:31:47;;;;;;;31.35;20.95;;;;;;;2.24;100.00;99540.78;10442418;28;20067;-73
2023/03/07 04:36:48;;;;;;;29.15;17.88;;;;;;;2.25;100.00;99542.56;10453368;28;20041;-72
2023/03/07 04:41:48;;;;;;;29.40;20.40;;;;;;;2.19;100.00;99540.53;10483261;28;20056;-73
2023/03/07 04:46:49;;;;;;;30.42;21.30;;;;;;;2.22;100.00;99534.66;10461047;28;20069;-73
2023/03/07 04:51:49;;;;;;;26.27;17.67;;;;;;;2.25;100.00;99526.22;10441033;28;20060;-73
2023/03/07 04:56:50;;;;;;;23.27;18.85;;;;;;;2.25;100.00;99516.75;10441686;28;20526;-73
2023/03/07 05:01:50;;;;;;;35.45;21.35;;;;;;;2.22;100.00;99514.00;10436324;28;20156;-72
2023/03/07 05:06:51;;;;;;;30.27;21.33;;;;;;;2.23;100.00;99510.63;10405044;28;20072;-72
2023/03/07 05:11:51;;;;;;;28.63;21.05;;;;;;;2.21;100.00;99509.63;10410275;28;20122;-72
2023/03/07 05:16:52;;;;;;;30.15;21.00;;;;;;;2.23;100.00;99508.03;10422154;28;20435;-73
2023/03/07 05:21:53;;;;;;;27.50;18.33;;;;;;;2.20;100.00;99501.00;10407646;28;20061;-72
2023/03/07 05:26:53;;;;;;;33.05;20.85;;;;;;;2.19;100.00;99500.91;10443077;28;20129;-73
2023/03/07 05:31:54;;;;;;;29.73;20.67;;;;;;;2.23;100.00;99491.66;10444424;28;20040;-72
2023/03/07 05:36:57;;;;;;;30.00;21.33;;;;;;;2.23;100.00;99489.09;10444075;28;20046;-73
2023/03/07 05:41:57;;;;;;;31.80;21.10;;;;;;;2.25;100.00;99492.66;10478723;28;20057;-73
2023/03/07 05:46:58;;;;;;;29.95;20.20;;;;;;;2.28;100.00;99477.34;10465752;28;20078;-73
2023/03/07 05:51:58;;;;;;;28.88;19.05;;;;;;;2.24;100.00;99481.41;10449715;28;20123;-73
2023/03/07 05:56:59;;;;;;;28.90;21.85;;;;;;;2.24;100.00;99481.41;10445356;28;20077;-73
2023/03/07 06:01:59;;;;;;;26.83;17.73;;;;;;;2.26;100.00;99466.91;10429930;28;20126;-72
2023/03/07 06:07:00;;;;;;;31.50;20.73;;;;;;;2.29;100.00;99471.38;10374169;28;20125;-73
2023/03/07 06:12:00;;;;;;;27.73;18.92;;;;;;;2.31;100.00;99472.34;10452868;28;20131;-73
2023/03/07 06:17:01;;;;;;;34.95;23.25;;;;;;;2.31;100.00;99467.19;10443751;28;20112;-73
2023/03/07 06:22:02;;;;;;;24.40;16.73;;;;;;;2.28;100.00;99459.25;10448137;28;20053;-74
2023/03/07 06:27:02;;;;;;;28.85;19.33;;;;;;;2.25;100.00;99462.53;10409571;28;20493;-72
2023/03/07 06:32:03;;;;;;;32.15;18.98;;;;;;;2.25;100.00;99459.97;10453464;28;20046;-72
2023/03/07 06:37:04;;;;;;;25.65;18.55;;;;;;;2.27;100.00;99448.03;10430005;28;20482;-73
2023/03/07 06:42:04;;;;;;;27.02;16.88;;;;;;;2.27;100.00;99445.44;10462849;28;20174;-72
2023/03/07 06:47:05;;;;;;;24.95;18.00;;;;;;;2.33;100.00;99444.94;10412989;28;20041;-72
2023/03/07 06:52:05;;;;;;;30.88;20.13;;;;;;;2.34;100.00;99437.25;10444694;28;20509;-72
2023/03/07 06:57:07;;;;;;;29.30;20.38;;;;;;;2.37;100.00;99431.38;10399735;28;20123;-72
2023/03/07 07:02:10;;;;;;;24.55;19.40;;;;;;;2.41;100.00;99440.19;10431820;28;20110;-72
2023/03/07 07:07:11;;;;;;;27.08;18.90;;;;;;;2.41;100.00;99435.94;10420797;28;20037;-72
2023/03/07 07:12:11;;;;;;;27.88;16.23;;;;;;;2.46;100.00;99436.16;10442954;28;20127;-72
2023/03/07 07:17:12;;;;;;;28.75;16.95;;;;;;;2.46;100.00;99431.91;10428894;28;20161;-72
2023/03/07 07:22:16;;;;;;;23.58;15.65;;;;;;;2.47;100.00;99435.38;10399979;28;20452;-73
2023/03/07 07:27:17;;;;;;;34.40;19.10;;;;;;;2.50;100.00;99425.22;10396213;28;20087;-73
2023/03/07 07:32:17;;;;;;;24.73;16.92;;;;;;;2.52;100.00;99421.03;10435388;28;20051;-73
2023/03/07 07:37:18;;;;;;;22.10;16.75;;;;;;;2.53;100.00;99420.22;10443581;28;20045;-74
2023/03/07 07:42:18;;;;;;;25.02;16.75;;;;;;;2.51;100.00;99420.97;10426948;28;20507;-72
2023/03/07 07:47:19;;;;;;;19.73;13.90;;;;;;;2.55;100.00;99430.66;10422456;28;20120;-73
2023/03/07 07:52:19;;;;;;;20.92;14.75;;;;;;;2.59;100.00;99436.06;10430849;28;20127;-73
2023/03/07 07:57:20;;;;;;;27.08;16.95;;;;;;;2.61;100.00;99433.59;10452793;28;20128;-72
2023/03/07 08:02:21;;;;;;;25.52;14.90;;;;;;;2.60;100.00;99417.19;10465377;28;20041;-73
2023/03/07 08:07:21;;;;;;;30.25;16.42;;;;;;;2.61;100.00;99425.84;10432567;28;20041;-72
2023/03/07 08:12:22;;;;;;;22.63;14.90;;;;;;;2.62;100.00;99438.81;10407212;28;20178;-72
2023/03/07 08:17:22;;;;;;;24.63;15.05;;;;;;;2.58;100.00;99444.63;10440574;28;20620;-74
2023/03/07 08:22:23;;;;;;;23.80;15.75;;;;;;;2.57;100.00;99476.41;10441655;28;20033;-74
2023/03/07 08:27:24;;;;;;;14.55;8.98;;;;;;;2.25;100.00;99524.50;10439988;28;20044;-74
2023/03/07 08:32:25;;;;;;;9.88;6.80;;;;;;;1.72;100.00;99515.31;10439377;28;20037;-75
2023/03/07 08:37:25;;;;;;;10.85;6.03;;;;;;;1.45;100.00;99518.84;10414345;28;20041;-74
2023/03/07 08:42:26;;;;;;;9.23;5.43;;;;;;;1.42;100.00;99528.09;10440989;28;20045;-74
2023/03/07 08:47:26;;;;;;;9.68;5.65;;;;;;;1.43;100.00;99533.34;10430762;28;20053;-74
2023/03/07 08:52:27;;;;;;;9.68;6.22;;;;;;;1.46;100.00;99523.22;10499376;28;20079;-75
2023/03/07 08:57:27;;;;;;;10.52;6.53;;;;;;;1.54;100.00;99523.72;10441112;28;20045;-74
2023/03/07 09:02:28;;;;;;;11.70;6.93;;;;;;;1.44;100.00;99527.38;10449626;28;21482;-74
2023/03/07 09:07:28;;;;;;;8.75;6.20;;;;;;;1.36;100.00;99538.91;10456810;28;20136;-73
2023/03/07 09:12:28;;;;;;;10.00;5.10;;;;;;;1.32;100.00;99544.66;10457089;28;20056;-73
2023/03/07 09:17:29;;;;;;;6.47;4.00;;;;;;;1.17;100.00;99554.91;10448174;28;20546;-73
2023/03/07 09:22:29;;;;;;;6.95;3.50;;;;;;;1.01;100.00;99569.38;10438279;28;20037;-74
2023/03/07 09:27:30;;;;;;;6.03;3.85;;;;;;;0.98;100.00;99563.13;10444061;28;20077;-76
2023/03/07 09:32:32;;;;;;;7.13;4.07;;;;;;;0.91;100.00;99567.00;10478690;28;20041;-76
2023/03/07 09:37:32;;;;;;;5.65;2.75;;;;;;;0.81;100.00;99570.66;10422265;28;20041;-75
2023/03/07 09:42:45;;;;;;;5.03;2.35;;;;;;;0.77;100.00;99568.66;10439772;28;20053;-74
2023/03/07 09:47:56;;;;;;;5.45;2.58;;;;;;;0.75;100.00;99556.50;10445100;28;20041;-74
2023/03/07 09:52:59;;;;;;;3.55;1.92;;;;;;;0.86;100.00;99553.81;10445623;28;20037;-74
2023/03/07 09:58:05;;;;;;;5.30;3.78;;;;;;;0.85;100.00;99549.44;10401740;28;20072;-74
2023/03/07 10:03:21;;;;;;;6.78;3.55;;;;;;;0.88;100.00;99557.38;10458931;28;20443;-73
2023/03/07 10:08:29;;;;;;;5.60;2.58;;;;;;;0.91;100.00;99572.16;10403442;28;20030;-73
2023/03/07 10:13:44;;;;;;;6.38;3.72;;;;;;;0.79;100.00;99574.81;10417157;28;20033;-74
2023/03/07 10:18:58;;;;;;;5.53;3.15;;;;;;;0.77;100.00;99578.09;10459643;28;20048;-74
2023/03/07 10:24:01;;;;;;;6.68;4.22;;;;;;;0.74;100.00;99578.75;10419237;28;20084;-73
2023/03/07 10:29:15;;;;;;;5.93;3.72;;;;;;;0.75;100.00;99582.25;10436192;28;20478;-74
2023/03/07 10:34:28;;;;;;;5.05;2.95;;;;;;;0.75;100.00;99588.28;10437273;28;20493;-72
2023/03/07 10:39:39;;;;;;;8.90;3.88;;;;;;;0.88;100.00;99595.16;10429766;28;20543;-72
2023/03/07 10:44:40;;;;;;;6.13;3.13;;;;;;;0.95;100.00;99579.28;10440338;28;20037;-72
2023/03/07 10:49:43;;;;;;;9.82;6.75;;;;;;;0.94;100.00;99579.19;10425076;28;20041;-72
2023/03/07 10:54:43;;;;;;;10.63;6.68;;;;;;;0.87;100.00;99585.63;10416136;28;20045;-73
2023/03/07 10:59:48;;;;;;;6.55;4.63;;;;;;;0.79;100.00;99582.53;10457178;28;20468;-73
2023/03/07 11:04:49;;;;;;;8.60;4.13;;;;;;;0.79;100.00;99582.53;10480740;28;20124;-73
2023/03/07 11:09:49;;;;;;;7.13;4.00;;;;;;;0.89;100.00;99573.75;10420390;28;20041;-73
2023/03/07 11:14:51;;;;;;;4.05;2.63;;;;;;;0.76;100.00;99573.72;10448767;28;20618;-73
2023/03/07 11:19:54;;;;;;;4.73;2.67;;;;;;;0.90;100.00;99574.63;10416409;28;20164;-74
2023/03/07 11:24:55;;;;;;;5.40;2.97;;;;;;;0.90;100.00;99570.38;10427508;28;20052;-74
2023/03/07 11:30:07;;;;;;;5.73;3.43;;;;;;;1.02;100.00;99575.41;10444006;28;20416;-74
2023/03/07 11:35:17;;;;;;;5.10;2.47;;;;;;;1.24;100.00;99569.06;10432721;28;20042;-74
2023/03/07 11:40:32;;;;;;;6.05;3.55;;;;;;;1.15;100.00;99572.84;10422233;28;20424;-74
2023/03/07 11:45:53;;;;;;;5.32;2.58;;;;;;;1.22;100.00;99575.81;10475937;28;20040;-75
2023/03/07 11:50:54;;;;;;;5.78;3.45;;;;;;;1.04;100.00;99571.25;10421363;28;20028;-75
2023/03/07 11:56:36;;;;;;;3.77;1.63;;;;;;;1.21;100.00;99571.44;10485987;28;20029;-75
2023/03/07 12:01:54;;;;;;;5.38;3.13;;;;;;;1.00;100.00;99571.84;10439441;28;20045;-74
2023/03/07 12:07:04;;;;;;;4.82;3.42;;;;;;;0.94;100.00;99566.28;10420777;28;20064;-74
2023/03/07 12:12:11;;;;;;;6.07;2.42;;;;;;;0.77;100.00;99575.50;10438224;28;20045;-74
2023/03/07 12:17:24;;;;;;;5.40;3.03;;;;;;;0.80;100.00;99570.56;10431231;28;20042;-74
2023/03/07 12:22:47;;;;;;;4.72;2.83;;;;;;;0.79;100.00;99561.94;10454233;28;20037;-74
2023/03/07 12:28:32;;;;;;;4.93;2.88;;;;;;;0.76;100.00;99560.84;10439427;28;20476;-75
2023/03/07 12:33:49;;;;;;;5.25;3.28;;;;;;;1.11;100.00;99562.25;10441949;28;20041;-74
2023/03/07 12:39:16;;;;;;;39.30;35.50;;;;;;;1.40;100.00;99564.09;10404851;28;20068;-74
2023/03/07 12:44:33;;;;;;;14.63;11.70;;;;;;;1.22;100.00;99555.19;10438453;28;20508;-74
2023/03/07 12:49:38;;;;;;;4.85;2.60;;;;;;;1.39;100.00;99558.84;10400028;28;20102;-74
2023/03/07 12:54:41;;;;;;;3.47;1.90;;;;;;;1.36;100.00;99564.69;10443381;28;20037;-74
2023/03/07 12:59:42;;;;;;;3.72;2.50;;;;;;;1.40;100.00;99564.09;10438769;28;20458;-74
2023/03/07 13:04:42;;;;;;;3.47;1.90;;;;;;;1.34;100.00;99549.94;10439376;28;20041;-74
2023/03/07 13:09:44;;;;;;;7.55;4.03;;;;;;;1.30;100.00;99557.47;10441128;28;20036;-75
2023/03/07 13:14:46;;;;;;;4.20;2.53;;;;;;;1.35;100.00;99554.31;10426479;28;20052;-74
2023/03/07 13:19:50;;;;;;;4.70;3.40;;;;;;;1.34;100.00;99553.38;10438994;28;20103;-74
2023/03/07 13:25:17;;;;;;;4.05;2.70;;;;;;;1.28;100.00;99563.31;10423242;28;20044;-73
2023/03/07 13:30:22;;;;;;;4.65;3.08;;;;;;;1.35;100.00;99555.19;10447140;28;20037;-74
2023/03/07 13:35:36;;;;;;;5.43;3.20;;;;;;;1.33;100.00;99559.34;10440057;28;20439;-73
2023/03/07 13:40:45;;;;;;;5.18;3.15;;;;;;;1.41;100.00;99558.13;10448617;28;20044;-73
2023/03/07 13:45:56;;;;;;;7.40;4.72;;;;;;;1.39;100.00;99566.59;10424683;28;20041;-73
2023/03/07 13:50:59;;;;;;;5.80;3.67;;;;;;;1.38;100.00;99555.38;10406204;28;20036;-74
2023/03/07 13:56:36;;;;;;;6.45;4.00;;;;;;;1.33;100.00;99556.75;10405171;28;20060;-74
2023/03/07 14:01:43;;;;;;;6.57;3.97;;;;;;;1.48;100.00;99559.44;10394672;28;20132;-73
2023/03/07 14:06:51;;;;;;;8.10;4.60;;;;;;;1.59;100.00;99572.97;10467744;28;20036;-73
2023/03/07 14:12:08;;;;;;;9.20;6.75;;;;;;;1.65;100.00;99580.22;10445178;28;20032;-73
2023/03/07 14:17:27;;;;;;;8.82;6.63;;;;;;;1.73;100.00;99574.75;10443916;28;20110;-73
2023/03/07 14:22:36;;;;;;;13.25;8.50;;;;;;;1.76;100.00;99574.94;10461869;28;20045;-73
2023/03/07 14:27:57;;;;;;;13.30;7.95;;;;;;;1.69;100.00;99577.91;10442410;28;20049;-73
2023/03/07 14:32:58;;;;;;;11.30;7.80;;;;;;;1.68;100.00;99589.03;10428157;28;20041;-73
2023/03/07 14:37:58;;;;;;;12.35;8.27;;;;;;;1.64;100.00;99578.44;10440525;28;20552;-73
2023/03/07 14:43:15;;;;;;;11.05;7.65;;;;;;;1.61;100.00;99574.88;10447018;28;20053;-72
2023/03/07 14:48:37;;;;;;;13.23;9.10;;;;;;;1.64;100.00;99569.00;10441714;28;20786;-72
2023/03/07 14:53:37;;;;;;;13.48;9.13;;;;;;;1.58;100.00;99584.09;10435872;28;20037;-73
2023/03/07 14:59:01;;;;;;;11.95;8.73;;;;;;;1.61;100.00;99586.88;10402655;28;20044;-73
2023/03/07 15:04:02;;;;;;;14.27;9.48;;;;;;;1.65;100.00;99583.69;10395361;28;20106;-74
2023/03/07 15:09:02;;;;;;;13.70;8.93;;;;;;;1.66;100.00;99587.19;10451939;28;20425;-74
2023/03/07 15:14:11;;;;;;;13.07;6.25;;;;;;;1.61;100.00;99590.34;10440639;28;20045;-73
2023/03/07 15:19:21;;;;;;;10.77;8.05;;;;;;;1.69;100.00;99590.81;10426100;28;20041;-74
2023/03/07 15:24:31;;;;;;;12.98;8.00;;;;;;;1.70;100.00;99584.88;10424881;28;20128;-74
2023/03/07 15:29:32;;;;;;;13.23;7.82;;;;;;;1.62;100.00;99588.66;10435089;28;20488;-74
2023/03/07 15:34:36;;;;;;;12.10;8.48;;;;;;;1.56;100.00;99590.84;10441458;28;20049;-74
2023/03/07 15:39:37;;;;;;;16.35;12.45;;;;;;;1.55;100.00;99586.47;10433906;28;20053;-74
2023/03/07 15:44:37;;;;;;;12.93;8.20;;;;;;;1.46;100.00;99597.13;10448243;28;20161;-74
2023/03/07 15:49:46;;;;;;;15.35;11.15;;;;;;;1.42;100.00;99608.03;10451795;28;20066;-74
2023/03/07 15:54:49;;;;;;;16.05;10.25;;;;;;;1.38;100.00;99608.63;10385847;28;20049;-74
2023/03/07 16:00:00;;;;;;;11.88;6.43;;;;;;;1.38;100.00;99616.38;10403823;28;20072;-74
2023/03/07 16:05:06;;;;;;;14.88;8.80;;;;;;;1.33;100.00;99615.19;10499188;28;20034;-74
2023/03/07 16:10:06;;;;;;;12.77;6.78;;;;;;;1.34;100.00;99607.53;10415248;28;20045;-74
2023/03/07 16:15:14;;;;;;;12.63;7.80;;;;;;;1.26;100.00;99619.03;10435860;28;20512;-74
2023/03/07 16:20:16;;;;;;;9.60;6.88;;;;;;;1.26;100.00;99627.69;10453981;28;20033;-74
2023/03/07 16:25:16;;;;;;;12.68;6.47;;;;;;;1.23;100.00;99626.56;10439113;28;20033;-74
2023/03/07 16:30:25;;;;;;;11.13;6.85;;;;;;;1.16;100.00;99631.31;10422913;28;20068;-74
2023/03/07 16:35:26;;;;;;;11.98;8.13;;;;;;;1.14;100.00;99650.06;10451409;28;20049;-74
2023/03/07 16:40:27;;;;;;;10.57;8.37;;;;;;;1.14;100.00;99644.91;10456025;28;20072;-73
2023/03/07 16:45:29;;;;;;;10.00;7.10;;;;;;;1.21;100.00;99651.34;10422623;28;20226;-74
2023/03/07 16:50:30;;;;;;;10.27;7.68;;;;;;;1.08;100.00;99655.69;10412256;28;20038;-74
2023/03/07 16:55:33;;;;;;;10.05;7.40;;;;;;;0.99;100.00;99668.88;10438480;28;20075;-74
2023/03/07 17:00:33;;;;;;;7.78;4.90;;;;;;;0.88;100.00;99675.88;10433614;28;20049;-74
2023/03/07 17:05:34;;;;;;;10.63;5.55;;;;;;;0.51;100.00;99683.69;10381792;28;20058;-74
2023/03/07 17:10:35;;;;;;;8.18;5.47;;;;;;;0.31;100.00;99691.72;10389135;28;20504;-74
2023/03/07 17:15:35;;;;;;;9.05;4.88;;;;;;;0.05;100.00;99709.69;10455749;28;20049;-74
2023/03/07 17:20:36;;;;;;;9.35;7.28;;;;;;;-0.08;100.00;99723.34;10405784;28;20389;-74
2023/03/07 17:25:36;;;;;;;13.90;8.75;;;;;;;-0.23;100.00;99730.88;10451315;28;20127;-74
2023/03/07 17:30:40;;;;;;;10.73;6.57;;;;;;;-0.42;100.00;99744.06;10434882;28;20515;-75
2023/03/07 17:35:41;;;;;;;10.20;6.80;;;;;;;-0.56;100.00;99743.06;10473766;28;20431;-74
2023/03/07 17:40:43;;;;;;;9.68;6.68;;;;;;;-0.67;100.00;99751.66;10460335;28;20087;-74
2023/03/07 17:45:43;;;;;;;14.97;10.03;;;;;;;-0.73;100.00;99769.19;10480375;28;20041;-74
2023/03/07 17:50:44;;;;;;;14.48;9.77;;;;;;;-0.78;100.00;99764.59;10421394;28;20037;-74
2023/03/07 17:55:44;;;;;;;18.23;11.48;;;;;;;-0.80;100.00;99770.38;10473765;28;20087;-75
2023/03/07 18:00:44;;;;;;;16.88;10.93;;;;;;;-0.88;100.00;99787.78;10446543;28;20126;-74
2023/03/07 18:05:45;;;;;;;19.27;12.65;;;;;;;-0.94;100.00;99802.75;10445349;28;20061;-74
2023/03/07 18:10:45;;;;;;;19.13;12.95;;;;;;;-0.96;100.00;99805.19;10442870;28;20430;-74
2023/03/07 18:15:46;;;;;;;23.58;14.23;;;;;;;-0.89;100.00;99811.69;10474149;28;20167;-74
2023/03/07 18:20:58;;;;;;;23.73;16.63;;;;;;;-0.86;100.00;99806.78;10434064;28;20037;-73
2023/03/07 18:26:17;;;;;;;23.48;16.00;;;;;;;-1.00;100.00;99810.88;10421719;28;20566;-74
2023/03/07 18:31:20;;;;;;;22.63;15.63;;;;;;;-1.03;100.00;99805.50;10437929;28;20132;-74
2023/03/07 18:36:22;;;;;;;19.95;13.15;;;;;;;-1.00;100.00;99804.84;10412166;28;20043;-73
2023/03/07 18:41:22;;;;;;;;;;;;;;;-1.00;100.00;99808.28;10409695;28;20048;-74
2023/03/07 18:46:25;;;;;;;25.15;15.13;;;;;;;-1.10;100.00;99814.41;10451571;28;20268;-74
2023/03/07 18:51:26;;;;;;;28.15;18.10;;;;;;;-1.04;100.00;99798.56;10442618;28;20115;-74
2023/03/07 18:56:27;;;;;;;26.27;17.43;;;;;;;-1.01;100.00;99809.06;10466006;28;20107;-74
2023/03/07 19:01:28;;;;;;;27.50;18.00;;;;;;;-0.99;100.00;99815.22;10477613;28;20045;-73
2023/03/07 19:06:36;;;;;;;31.58;21.92;;;;;;;-1.01;100.00;99818.47;10423636;28;20128;-74
2023/03/07 19:11:36;;;;;;;30.40;19.08;;;;;;;-0.92;100.00;99811.47;10401853;28;20430;-74
2023/03/07 19:16:37;;;;;;;29.42;20.13;;;;;;;-0.86;100.00;99819.63;10401908;28;20109;-74
2023/03/07 19:21:37;;;;;;;27.53;17.63;;;;;;;-0.92;100.00;99808.91;10375702;28;20080;-73
2023/03/07 19:26:39;;;;;;;29.03;16.90;;;;;;;-0.90;100.00;99822.75;10409170;28;20045;-74
2023/03/07 19:31:42;;;;;;;;;;;;;;;-0.96;100.00;99828.31;10443561;28;20138;-73
2023/03/07 19:36:43;;;;;;;26.27;17.13;;;;;;;-0.85;100.00;99835.94;10434480;28;20019;-74
2023/03/07 19:41:46;;;;;;;32.77;19.93;;;;;;;-0.83;100.00;99831.81;10400008;28;20124;-73
2023/03/07 19:46:47;;;;;;;30.90;17.58;;;;;;;-0.87;100.00;99832.34;10454544;28;20045;-74
2023/03/07 19:51:47;;;;;;;26.15;18.85;;;;;;;-0.86;100.00;99837.63;10430501;28;20037;-73
2023/03/07 19:56:48;;;;;;;21.20;13.97;;;;;;;-0.93;100.00;99841.38;10431258;28;20041;-74
2023/03/07 20:01:48;;;;;;;13.82;12.07;;;;;;;-0.91;100.00;99852.66;10455957;28;20131;-74
2023/03/07 20:06:49;;;;;;;25.10;15.48;;;;;;;-0.96;100.00;99864.25;10453321;28;20065;-74
2023/03/07 20:11:49;;;;;;;26.23;15.48;;;;;;;-0.91;100.00;99860.38;10399690;28;20501;-74
2023/03/07 20:16:50;;;;;;;21.77;13.73;;;;;;;-0.92;100.00;99861.16;10414916;28;20129;-74
2023/03/07 20:21:50;;;;;;;23.83;13.60;;;;;;;-0.89;100.00;99853.69;10401206;28;20041;-74
2023/03/07 20:26:51;;;;;;;24.50;13.88;;;;;;;-0.90;100.00;99851.88;10427787;28;20080;-74
2023/03/07 20:31:52;;;;;;;20.90;15.60;;;;;;;-0.93;100.00;99864.50;10427472;28;20182;-73
2023/03/07 20:36:53;;;;;;;25.87;17.27;;;;;;;-1.01;100.00;99860.44;10459040;28;20033;-73
2023/03/07 20:41:54;;;;;;;23.63;16.98;;;;;;;-1.01;100.00;99870.72;10420451;28;20038;-73
2023/03/07 20:46:54;;;;;;;28.60;17.05;;;;;;;-1.05;100.00;99863.56;10456548;28;20123;-73
2023/03/07 20:51:55;;;;;;;22.02;16.15;;;;;;;-0.97;100.00;99862.47;10462721;28;20041;-73
2023/03/07 20:56:55;;;;;;;23.73;15.52;;;;;;;-1.08;100.00;99856.53;10440509;28;20025;-73
2023/03/07 21:01:56;;;;;;;24.65;16.23;;;;;;;-1.06;100.00;99869.47;10482426;28;20064;-74
2023/03/07 21:06:56;;;;;;;30.63;16.15;;;;;;;-1.16;100.00;99867.88;10439227;28;20044;-74
2023/03/07 21:11:57;;;;;;;22.27;16.23;;;;;;;-1.24;100.00;99871.50;10431518;28;20499;-73
2023/03/07 21:16:57;;;;;;;24.77;15.37;;;;;;;-1.12;100.00;99880.16;10465647;28;20098;-74
2023/03/07 21:21:58;;;;;;;25.17;17.10;;;;;;;-1.20;100.00;99883.81;10442308;28;20120;-73
2023/03/07 21:26:59;;;;;;;22.45;15.60;;;;;;;-1.24;100.00;99884.34;10447524;28;20037;-73
2023/03/07 21:31:59;;;;;;;33.67;18.42;;;;;;;-1.12;100.00;99885.31;10437411;28;20128;-74
2023/03/07 21:37:00;;;;;;;28.23;17.88;;;;;;;-1.10;100.00;99891.47;10419101;28;20064;-74
2023/03/07 21:42:00;;;;;;;29.98;17.10;;;;;;;-1.09;100.00;99900.03;10418221;28;20045;-73
2023/03/07 21:47:01;;;;;;;26.13;19.23;;;;;;;-1.09;100.00;99903.53;10469241;28;20488;-74
2023/03/07 21:52:01;;;;;;;27.10;18.92;;;;;;;-1.10;100.00;99908.53;10450657;28;20119;-74
2023/03/07 21:57:03;;;;;;;27.50;16.52;;;;;;;-1.08;100.00;99912.13;10483651;28;20480;-74
2023/03/07 22:02:03;;;;;;;29.38;17.40;;;;;;;-1.08;100.00;99919.81;10463997;28;20043;-74
2023/03/07 22:07:04;;;;;;;24.47;17.77;;;;;;;-1.09;100.00;99921.50;10444794;28;20037;-74
2023/03/07 22:12:04;;;;;;;22.15;15.15;;;;;;;-1.12;100.00;99920.34;10403572;28;20069;-74
2023/03/07 22:17:05;;;;;;;27.70;15.63;;;;;;;-1.06;100.00;99920.84;10375103;28;20776;-74
2023/03/07 22:22:05;;;;;;;60.83;19.57;;;;;;;-1.06;100.00;99925.97;10388617;28;20034;-74
2023/03/07 22:27:06;;;;;;;34.00;19.23;;;;;;;-1.09;100.00;99926.63;10403117;28;20448;-74
2023/03/07 22:32:06;;;;;;;27.33;17.42;;;;;;;-1.08;100.00;99930.09;10349802;28;1175861;-73
2023/03/07 22:37:07;;;;;;;23.10;15.63;;;;;;;-1.00;100.00;99928.13;10449592;28;20484;-73
2023/03/07 22:42:07;;;;;;;27.37;16.97;;;;;;;-1.02;100.00;99925.44;10470258;28;20041;-74
2023/03/07 22:47:08;;;;;;;30.20;18.83;;;;;;;-1.02;100.00;99914.28;10449536;28;20120;-73
2023/03/07 22:52:08;;;;;;;29.90;18.48;;;;;;;-1.01;100.00;99910.94;10401282;28;20049;-74
2023/03/07 22:57:09;;;;;;;33.47;19.90;;;;;;;-1.00;100.00;99917.88;10401263;28;20132;-74
2023/03/07 23:02:09;;;;;;;31.05;17.67;;;;;;;-0.99;100.00;99914.53;10404912;28;20072;-74
2023/03/07 23:07:10;;;;;;;25.33;16.83;;;;;;;-1.02;100.00;99920.28;10396879;28;20061;-74